首页
METAR-TAF:

METAR-TAF

机场 :

大不里士, 伊朗

纬度: 38-05N, 经度: 046-17E, 海拔: 1367米

当前天气观测

该预报发布于39分钟前的06:00 UTC
静风
温度 10°C
湿度 62%
气压 1018 hPa
能见度10公里或以上
少量云层高于3000英尺
散云层高于18000英尺

METAR: OITT 030600Z 00000KT 9999 FEW030 SCT180 10/03 Q1017 A3005 NOSIG

时间: 11:09 (06:39 UTC)

预报

该预报发布于1小时和9分钟前的05:30 UTC
预报有效从03日的 06点(UTC)到 04日的 12点(UTC)
风速6节,风向东转东北
能見度: 8000
短暂存在
从 03日的 10点(UTC)到 03日的 15点(UTC)
风速20节,风向西转西南
能見度: 5000
少量云层高于3000英尺, 积雨云.
散云层高于3500英尺
多云层高于10000英尺
阵雨
成为
从 03日的 15点(UTC)到 03日的 17点(UTC)
风速10节,风向
少量云层高于3000英尺, 积雨云.
散云层高于3500英尺
多云层高于10000英尺
成为
从 03日的 23点(UTC)到 04日的 01点(UTC)
能見度: 3000
雨, 轻雾

TAF: OITT 030530Z 0306/0412 07006KT 8000 FWE035 TEMPO 0310/0315 25020KT 5000 SHRA FEW030CB SCT035 BKN100 BECMG 0315/0317 17010KT FEW030CB SCT035 BKN100 BECMG 0323/0401 3000 RA BR

超过4000个机场的气象观测和天气预报(METAR&TAF报告)。

可查询的气象台以黄色和红色小点在地图上表示。

将鼠标移到小点上方,可查看气象台名称。

然后点击查看天气观测和预报。

如需切换地图:点击带黑十字的绿色按钮放大地图;点击带横线的绿色按钮缩小地图;或者点击绿色箭头查看邻近地区的地图。


METAR-TAF: